Tuesday, December 18, 2018, 12:23 PM EST
Back to Local

KJFK, Kennedy International Airport

Location: Rosedale, NY, United States Lat: 40.633
Local Time: 12:23 PM EST (17:23 GMT) Lon: -73.767
Time Zone: US/Eastern Elev: 13 ft

Show me the last for .
Show Decoded

2018-12-18 11:51 METAR KJFK 181651Z 33018KT 10SM FEW050 02/M10 A3004 RMK AO2 PK WND 34027/1629
                 SLP172 T00171100 =
2018-12-18 10:51 METAR KJFK 181551Z 33023G29KT 10SM FEW050 01/M10 A3004 RMK AO2 PK WND 33031/1516
                 SLP173 T00111100 =
2018-12-18 09:51 METAR KJFK 181451Z 33023G28KT 10SM SCT047 01/M09 A3004 RMK AO2 PK WND 34029/1414
                 SLP173 T00061094 51036 =
2018-12-18 08:51 METAR KJFK 181351Z 33019G28KT 10SM SCT043 00/M09 A3001 RMK AO2 PK WND 33035/1256
                 SLP161 T00001094 =
2018-12-18 07:51 METAR KJFK 181251Z 33021G28KT 10SM FEW055 00/M09 A2998 RMK AO2 PK WND 32041/1155
                 PRESRR SLP150 T00001089 =
2018-12-18 06:51 METAR KJFK 181151Z 31024G36KT 10SM FEW050 01/M09 A2994 RMK AO2 PK WND 32037/1102
                 SLP137 T00061094 10044 20006 51027 $ =
2018-12-18 05:51 METAR KJFK 181051Z 32025G37KT 10SM FEW050 01/M09 A2991 RMK AO2 PK WND 32044/1041
                 SLP129 T00061089 $ =
2018-12-18 04:51 METAR KJFK 180951Z 33019G28KT 10SM BKN050 01/M08 A2989 RMK AO2 PK WND 33033/0934
                 SLP121 T00111083 $ =
2018-12-18 03:51 METAR KJFK 180851Z 31022G34KT 10SM BKN050 02/M08 A2986 RMK AO2 PK WND 33036/0804
                 SLP110 T00221078 51027 $ =
2018-12-18 02:51 METAR KJFK 180751Z 31025G31KT 10SM BKN050 03/M07 A2984 RMK AO2 PK WND 31031/0746
                 SLP103 T00281072 $ =
2018-12-18 01:51 METAR KJFK 180651Z 31023G32KT 10SM SCT050 03/M07 A2981 RMK AO2 PK WND 31041/0615
                 SLP094 T00331067 $ =
2018-12-18 00:51 METAR KJFK 180551Z 30021G30KT 10SM BKN050 04/M04 A2978 RMK AO2 PK WND 31031/0502
                 SLP083 T00441039 10067 20044 56004 $ =
2018-12-17 23:51 METAR KJFK 180451Z 30022G31KT 10SM BKN050 05/M04 A2978 RMK AO2 PK WND 30032/0436
                 SLP083 T00501044 400940033 $ =
2018-12-17 22:51 METAR KJFK 180351Z 30017G25KT 10SM BKN050 05/M04 A2978 RMK AO2 PK WND 29033/0330
                 SLP085 T00501039 $ =
2018-12-17 21:51 METAR KJFK 180251Z 29020G28KT 10SM BKN049 06/M03 A2979 RMK AO2 PK WND 31030/0153
                 SLP086 T00561033 50002 $ =
2018-12-17 20:51 METAR KJFK 180151Z 31023G34KT 10SM BKN060 06/M04 A2979 RMK AO2 PK WND 30034/0148
                 SLP087 T00611044 $ =
2018-12-17 19:51 METAR KJFK 180051Z 30018G25KT 10SM SCT050 OVC060 06/M04 A2979 RMK AO2 PK WND
                 31037/0029 SLP086 T00611039 $ =
2018-12-17 18:51 METAR KJFK 172351Z 30017G31KT 10SM OVC050 06/M03 A2978 RMK AO2 PK WND 31039/2337
                 SLP085 T00611033 10083 20061 51027 $ =
2018-12-17 17:51 METAR KJFK 172251Z 30020G27KT 10SM OVC048 07/M03 A2976 RMK AO2 PK WND 29036/2214
                 SLP076 T00671028 $ =
2018-12-17 16:51 METAR KJFK 172151Z 31019G26KT 10SM OVC050 07/M03 A2974 RMK AO2 PK WND 30035/2052
                 SLP070 T00671033 $ =
2018-12-17 15:51 METAR KJFK 172051Z 30025G32KT 10SM BKN048 07/M03 A2970 RMK AO2 PK WND 31034/2024
                 SLP057 T00721028 53006 =
2018-12-17 14:51 METAR KJFK 171951Z 30019G37KT 10SM FEW049 BKN060 08/M02 A2969 RMK AO2 PK WND
                 29037/1946 SLP054 T00781022 =
2018-12-17 13:51 METAR KJFK 171851Z 30019G25KT 10SM BKN039 08/M01 A2969 RMK AO2 PK WND 30032/1825
                 SLP053 T00781011 =
2018-12-17 12:51 METAR KJFK 171751Z 30019G26KT 10SM BKN035 BKN250 08/02 A2968 RMK AO2 PK WND
                 30026/1750 SLP051 T00830017 10094 20039 56026 =

Support USWX by starting your Amazon purchase here.